Time;durP1;ratioP1;P1;durP2;ratioP2;P2;SDS_P1;SDS_P2;PMS_P1;PMS_P2;Temp;Humidity;BMP_temperature;BMP_pressure;BME280_temperature;BME280_humidity;BME280_pressure;Samples;Min_cycle;Max_cycle;Signal;HPM_P1;HPM_P2
2022/05/09 00:01:14;;;;;;;;;;;;;;;9.96;52.78;101323.33;1690673;83;27316;-71
2022/05/09 00:03:42;;;;;;;8.83;5.30;;;;;;;9.93;53.66;101328.45;1688272;85;25653;-71
2022/05/09 00:06:08;;;;;;;13.13;4.72;;;;;;;9.88;53.44;101327.97;1688274;84;25378;-70
2022/05/09 00:08:34;;;;;;;7.33;4.72;;;;;;;9.82;53.52;101332.57;1688110;84;35238;-70
2022/05/09 00:11:00;;;;;;;11.33;5.42;;;;;;;9.77;53.69;101334.50;1688329;85;25712;-70
2022/05/09 00:13:27;;;;;;;10.38;5.12;;;;;;;9.72;54.33;101332.63;1688301;84;27307;-71
2022/05/09 00:15:53;;;;;;;8.55;4.80;;;;;;;9.67;54.39;101337.53;1688050;84;25647;-70
2022/05/09 00:18:23;;;;;;;15.70;5.55;;;;;;;9.63;54.60;101345.10;1688360;85;25378;-70
2022/05/09 00:20:47;;;;;;;8.88;5.22;;;;;;;9.60;55.10;101346.45;1686764;84;25637;-70
2022/05/09 00:23:13;;;;;;;8.25;4.70;;;;;;;9.57;55.11;101351.08;1688061;85;25759;-70
2022/05/09 00:25:40;;;;;;;15.03;5.92;;;;;;;9.52;54.97;101347.84;1688383;84;27407;-70
2022/05/09 00:28:07;;;;;;;9.70;5.62;;;;;;;9.48;55.45;101348.14;1688177;84;25764;-70
2022/05/09 00:30:33;;;;;;;8.58;5.85;;;;;;;9.46;55.83;101353.54;1637839;86;25445;-71
2022/05/09 00:32:59;;;;;;;8.05;5.35;;;;;;;9.43;56.11;101362.18;1642209;86;35013;-70
2022/05/09 00:35:25;;;;;;;9.53;5.33;;;;;;;9.39;56.25;101355.73;1642441;86;25644;-71
2022/05/09 00:37:51;;;;;;;12.25;5.75;;;;;;;9.36;56.32;101359.77;1642480;87;27434;-70
2022/05/09 00:40:18;;;;;;;12.45;5.85;;;;;;;9.32;56.92;101363.56;1642598;87;25473;-70
2022/05/09 00:42:49;;;;;;;11.45;5.20;;;;;;;9.30;57.06;101369.78;1642680;87;25552;-70
2022/05/09 00:45:16;;;;;;;8.65;5.40;;;;;;;9.27;57.42;101364.12;1641991;86;25790;-70
2022/05/09 00:47:43;;;;;;;8.95;6.00;;;;;;;9.25;57.34;101369.80;1642697;87;25443;-70
2022/05/09 00:50:15;;;;;;;12.00;5.80;;;;;;;9.22;57.65;101378.44;1642762;87;27320;-70
2022/05/09 00:52:48;;;;;;;10.00;5.58;;;;;;;9.20;57.58;101374.41;1642596;87;26734;-70
2022/05/09 00:55:29;;;;;;;9.40;5.50;;;;;;;9.19;57.98;101380.88;1642703;87;25661;-70
2022/05/09 00:58:26;;;;;;;12.20;5.55;;;;;;;9.15;58.23;101381.97;1642658;87;25673;-70
2022/05/09 01:00:54;;;;;;;11.28;5.60;;;;;;;9.11;58.64;101387.66;1642013;86;25614;-69
2022/05/09 01:03:38;;;;;;;9.03;5.05;;;;;;;9.06;58.98;101384.41;1695766;84;27312;-69
2022/05/09 01:06:04;;;;;;;9.83;5.75;;;;;;;9.04;58.66;101387.09;1694323;84;25543;-69
2022/05/09 01:08:32;;;;;;;10.20;5.75;;;;;;;9.01;58.89;101388.98;1695731;84;25417;-69
2022/05/09 01:11:04;;;;;;;8.13;5.50;;;;;;;8.97;59.46;101396.30;1695643;84;25637;-70
2022/05/09 01:13:35;;;;;;;9.58;6.00;;;;;;;8.94;59.80;101386.04;1695787;84;25572;-69
2022/05/09 01:16:04;;;;;;;10.20;6.03;;;;;;;8.92;59.91;101391.42;1695810;84;27391;-69
2022/05/09 01:18:32;;;;;;;8.55;5.85;;;;;;;8.90;60.01;101393.04;1695854;84;25633;-70
2022/05/09 01:20:58;;;;;;;8.80;5.67;;;;;;;8.88;60.25;101392.51;1695763;84;25421;-70
2022/05/09 01:23:24;;;;;;;9.00;5.53;;;;;;;8.86;60.25;101397.37;1695851;84;35166;-70
2022/05/09 01:25:52;;;;;;;9.73;5.83;;;;;;;8.84;60.00;101391.44;1695930;84;25631;-70
2022/05/09 01:28:18;;;;;;;11.05;5.70;;;;;;;8.82;60.58;101396.30;1695927;84;27402;-70
2022/05/09 01:30:56;;;;;;;9.55;5.58;;;;;;;8.78;60.65;101397.91;1695859;84;25382;-70
2022/05/09 01:33:36;;;;;;;8.95;5.25;;;;;;;8.76;60.60;101396.02;1695712;83;25391;-69
2022/05/09 01:36:11;;;;;;;10.50;5.95;;;;;;;8.72;61.00;101399.00;1695806;84;25857;-70
2022/05/09 01:38:52;;;;;;;8.20;5.08;;;;;;;8.68;60.84;101398.70;1695984;84;25363;-70
2022/05/09 01:41:18;;;;;;;11.55;6.12;;;;;;;8.65;60.96;101395.22;1695929;84;27392;-70
2022/05/09 01:43:48;;;;;;;11.53;5.60;;;;;;;8.62;61.33;101401.14;1695810;84;25549;-70
2022/05/09 01:46:22;;;;;;;7.78;5.65;;;;;;;8.60;61.27;101403.30;1695916;84;25631;-71
2022/05/09 01:51:34;;;;;;;7.92;5.40;;;;;;;8.53;61.46;101413.00;1695953;84;25613;-70
2022/05/09 01:54:00;;;;;;;12.98;5.40;;;;;;;8.50;61.55;101412.73;1695875;84;27304;-70
2022/05/09 01:56:31;;;;;;;8.30;4.85;;;;;;;8.48;61.60;101417.56;1695821;84;25596;-71
2022/05/09 01:58:59;;;;;;;10.08;5.33;;;;;;;8.45;62.04;101409.48;1696033;84;25208;-70
2022/05/09 02:01:30;;;;;;;7.12;5.05;;;;;;;8.43;61.70;101422.94;1696938;83;25628;-69
2022/05/09 02:03:58;;;;;;;7.95;5.15;;;;;;;8.40;62.02;101416.18;1698298;84;25459;-71
2022/05/09 02:06:24;;;;;;;9.25;4.75;;;;;;;8.36;61.97;101421.81;1697367;84;27310;-70
2022/05/09 02:08:50;;;;;;;8.75;5.37;;;;;;;8.32;61.82;101416.70;1697293;84;33058;-70
2022/05/09 02:11:16;;;;;;;9.60;4.55;;;;;;;8.31;61.70;101419.11;1697388;84;25624;-70
2022/05/09 02:13:42;;;;;;;11.88;4.65;;;;;;;8.28;61.52;101423.70;1697370;84;25668;-71
2022/05/09 02:16:10;;;;;;;7.25;4.70;;;;;;;8.24;62.10;101422.08;1697421;84;25387;-71
2022/05/09 02:18:37;;;;;;;8.23;4.45;;;;;;;8.22;62.12;101425.55;1697349;84;26816;-70
2022/05/09 02:21:04;;;;;;;7.83;5.00;;;;;;;8.18;62.45;101427.98;1697313;84;25469;-70
2022/05/09 02:23:33;;;;;;;6.55;5.10;;;;;;;8.16;62.43;101429.33;1697371;84;25481;-71
2022/05/09 02:26:00;;;;;;;8.05;4.60;;;;;;;8.13;62.42;101432.55;1697309;84;25837;-71
2022/05/09 02:28:26;;;;;;;7.90;4.58;;;;;;;8.11;62.21;101439.55;1697351;84;25561;-71
2022/05/09 02:30:53;;;;;;;7.37;4.58;;;;;;;8.09;62.27;101433.62;1697384;84;27317;-71
2022/05/09 02:33:19;;;;;;;8.68;4.67;;;;;;;8.06;62.33;101438.73;1697296;84;25747;-71
2022/05/09 02:35:45;;;;;;;9.48;4.97;;;;;;;8.03;62.19;101447.59;1697358;84;29732;-71
2022/05/09 02:38:11;;;;;;;8.70;4.22;;;;;;;7.98;62.52;101442.18;1697320;84;26382;-71
2022/05/09 02:40:38;;;;;;;10.03;4.70;;;;;;;7.97;62.80;101442.47;1697424;84;25414;-70
2022/05/09 02:43:04;;;;;;;10.30;4.58;;;;;;;7.93;63.00;101452.13;1697354;84;27306;-70
2022/05/09 02:45:31;;;;;;;7.45;4.37;;;;;;;7.89;63.15;101455.89;1697273;84;25541;-70
2022/05/09 02:47:57;;;;;;;6.60;4.22;;;;;;;7.85;63.01;101456.95;1697388;84;25596;-70
2022/05/09 02:50:25;;;;;;;6.45;4.25;;;;;;;7.83;63.21;101459.62;1697339;84;26374;-70
2022/05/09 02:52:53;;;;;;;5.55;4.42;;;;;;;7.80;63.27;101465.01;1697342;84;25466;-70
2022/05/09 02:55:22;;;;;;;7.37;4.53;;;;;;;7.77;63.33;101466.88;1697305;84;27389;-70
2022/05/09 02:57:49;;;;;;;10.58;4.62;;;;;;;7.74;63.28;101462.55;1675354;84;25674;-70
2022/05/09 03:00:23;;;;;;;6.95;3.72;;;;;;;7.71;63.25;101465.75;1696015;84;25603;-71
2022/05/09 03:05:39;;;;;;;6.35;4.10;;;;;;;7.65;63.33;101468.97;1697381;84;25464;-70
2022/05/09 03:08:11;;;;;;;5.75;3.90;;;;;;;7.62;63.28;101482.94;1697505;84;27314;-70
2022/05/09 03:10:38;;;;;;;7.12;4.30;;;;;;;7.57;63.47;101479.67;1697281;84;25587;-70
2022/05/09 03:13:08;;;;;;;6.03;3.72;;;;;;;7.56;63.54;101492.88;1697321;84;25403;-70
2022/05/09 03:15:38;;;;;;;5.30;4.20;;;;;;;7.54;63.35;101488.80;1697318;84;25860;-69
2022/05/09 03:18:06;;;;;;;7.85;3.80;;;;;;;7.51;63.43;101488.80;1697391;84;25603;-69
2022/05/09 03:20:33;;;;;;;6.15;3.98;;;;;;;7.50;63.56;101495.25;1697325;84;27312;-71
2022/05/09 03:23:02;;;;;;;6.00;3.58;;;;;;;7.47;63.33;101487.17;1697230;84;25702;-70
2022/05/09 03:25:28;;;;;;;5.75;3.77;;;;;;;7.46;63.53;101493.61;1697273;84;25545;-70
2022/05/09 03:27:54;;;;;;;7.55;4.05;;;;;;;7.45;63.42;101492.52;1697313;84;25623;-70
2022/05/09 03:30:20;;;;;;;7.47;4.50;;;;;;;7.43;63.45;101492.78;1697343;84;25633;-71
2022/05/09 03:32:47;;;;;;;6.33;3.80;;;;;;;7.43;63.46;101494.66;1697345;84;27382;-70
2022/05/09 03:35:17;;;;;;;5.55;3.90;;;;;;;7.40;63.47;101497.87;1697224;84;25545;-70
2022/05/09 03:37:43;;;;;;;8.53;4.03;;;;;;;7.40;63.65;101495.17;1697293;84;25451;-70
2022/05/09 03:40:13;;;;;;;7.78;3.70;;;;;;;7.40;63.63;101500.56;1697304;84;25669;-69
2022/05/09 03:42:39;;;;;;;6.58;4.12;;;;;;;7.39;63.71;101507.00;1697341;84;25613;-72
2022/05/09 03:45:08;;;;;;;8.78;3.58;;;;;;;7.40;63.62;101508.63;1697327;84;27634;-71
2022/05/09 03:47:34;;;;;;;7.15;3.92;;;;;;;7.42;63.72;101515.91;1697218;84;25533;-71
2022/05/09 03:50:00;;;;;;;7.40;3.37;;;;;;;7.41;63.53;101509.73;1697285;84;25524;-70
2022/05/09 03:52:26;;;;;;;6.22;4.20;;;;;;;7.44;63.68;101519.16;1697256;84;25687;-69
2022/05/09 03:54:52;;;;;;;7.08;3.92;;;;;;;7.43;63.55;101521.05;1697336;84;25587;-70
2022/05/09 03:57:18;;;;;;;6.78;3.42;;;;;;;7.43;63.48;101526.42;1697323;84;27224;-70
2022/05/09 03:59:44;;;;;;;7.22;4.40;;;;;;;7.44;63.53;101533.96;1697212;84;33118;-70
2022/05/09 04:02:10;;;;;;;11.48;3.75;;;;;;;7.44;63.53;101533.96;1695464;83;25582;-69
2022/05/09 04:04:36;;;;;;;5.92;3.58;;;;;;;7.47;63.58;101536.14;1695268;84;26503;-72
2022/05/09 04:07:03;;;;;;;7.62;3.70;;;;;;;7.50;63.49;101540.22;1695282;84;32479;-70
2022/05/09 04:09:29;;;;;;;6.40;3.58;;;;;;;7.52;63.50;101538.07;1695285;84;27405;-72
2022/05/09 04:11:55;;;;;;;8.28;3.25;;;;;;;7.56;63.36;101541.86;1695195;84;25409;-72
2022/05/09 04:17:10;;;;;;;9.78;3.67;;;;;;;7.61;63.27;101541.89;1696520;84;25613;-69
2022/05/09 04:19:38;;;;;;;23.00;3.58;;;;;;;7.64;63.09;101543.56;1696854;84;25220;-71
2022/05/09 04:22:04;;;;;;;7.67;3.15;;;;;;;7.67;63.11;101549.75;1695305;84;27304;-69
2022/05/09 04:24:31;;;;;;;5.62;3.10;;;;;;;7.70;62.99;101551.13;1695188;84;25603;-71
2022/05/09 04:27:00;;;;;;;7.40;3.42;;;;;;;7.74;62.97;101554.12;1695216;84;25551;-69
2022/05/09 04:29:28;;;;;;;6.08;3.30;;;;;;;7.80;62.82;101551.20;1695239;84;26387;-69
2022/05/09 04:31:54;;;;;;;5.72;3.00;;;;;;;7.85;62.61;101549.09;1695311;84;25457;-69
2022/05/09 04:34:21;;;;;;;4.60;3.02;;;;;;;7.88;62.28;101550.44;1695257;84;28016;-70
2022/05/09 04:36:47;;;;;;;5.72;3.42;;;;;;;7.94;62.31;101556.14;1695196;84;25582;-69
2022/05/09 04:39:15;;;;;;;4.85;3.08;;;;;;;8.00;62.16;101554.57;1695327;84;25608;-69
2022/05/09 04:41:45;;;;;;;4.50;2.90;;;;;;;8.06;61.99;101554.05;1695243;84;25717;-70
2022/05/09 04:44:11;;;;;;;4.20;2.42;;;;;;;8.14;61.87;101560.30;1695282;84;25617;-70
2022/05/09 04:46:38;;;;;;;8.20;2.92;;;;;;;8.17;61.57;101563.83;1695246;84;28023;-69
2022/05/09 04:49:04;;;;;;;3.00;2.22;;;;;;;8.24;61.66;101567.64;1695304;84;25724;-70
2022/05/09 04:51:30;;;;;;;3.00;2.40;;;;;;;8.31;61.19;101569.55;1695363;84;25567;-70
2022/05/09 04:53:57;;;;;;;3.85;2.55;;;;;;;8.37;61.15;101566.34;1675171;84;26238;-70
2022/05/09 04:56:23;;;;;;;5.28;2.52;;;;;;;8.45;60.97;101569.11;1695355;84;25618;-70
2022/05/09 04:58:53;;;;;;;5.08;2.90;;;;;;;8.52;60.73;101568.33;1695584;84;25895;-72
2022/05/09 05:01:22;;;;;;;4.53;2.55;;;;;;;8.62;60.44;101578.34;1694390;84;25658;-69
2022/05/09 05:03:48;;;;;;;4.70;2.00;;;;;;;8.67;60.21;101580.52;1695247;83;25385;-70
2022/05/09 05:06:15;;;;;;;3.75;2.47;;;;;;;8.73;60.04;101579.44;1695209;84;25604;-69
2022/05/09 05:08:43;;;;;;;6.03;2.40;;;;;;;8.81;59.76;101578.67;1695344;84;25758;-69
2022/05/09 05:11:09;;;;;;;9.78;2.95;;;;;;;8.89;59.72;101579.52;1695315;84;27299;-70
2022/05/09 05:13:35;;;;;;;2.70;2.00;;;;;;;9.03;59.60;101586.56;1695291;84;33101;-73
2022/05/09 05:16:01;;;;;;;2.42;1.85;;;;;;;9.14;59.42;101582.78;1695362;84;25398;-70
2022/05/09 05:18:30;;;;;;;4.80;3.20;;;;;;;9.23;59.12;101586.59;1695290;84;26236;-70
2022/05/09 05:20:56;;;;;;;5.08;2.67;;;;;;;9.29;58.82;101585.50;1695296;84;25619;-69
2022/05/09 05:23:23;;;;;;;5.15;2.35;;;;;;;9.38;58.82;101593.91;1695230;83;27388;-71
2022/05/09 05:25:49;;;;;;;9.70;2.00;;;;;;;9.48;58.63;101599.31;1695055;84;25466;-69
2022/05/09 05:28:17;;;;;;;2.75;1.55;;;;;;;9.60;58.26;101602.27;1695250;84;25568;-69
2022/05/09 05:30:44;;;;;;;6.67;2.30;;;;;;;9.68;57.91;101601.19;1695254;84;26142;-69
2022/05/09 05:33:10;;;;;;;2.85;2.02;;;;;;;9.79;57.59;101605.23;1695314;84;25627;-68
2022/05/09 05:35:36;;;;;;;3.35;2.00;;;;;;;9.88;57.05;101599.56;1695266;84;28179;-70
2022/05/09 05:38:03;;;;;;;6.70;3.30;;;;;;;9.96;56.72;101600.89;1695286;83;25390;-69
2022/05/09 05:40:29;;;;;;;6.40;2.12;;;;;;;10.02;56.74;101603.31;1693834;83;25796;-69
2022/05/09 05:42:55;;;;;;;11.65;2.72;;;;;;;10.12;56.54;101606.55;1671344;84;25674;-70
2022/05/09 05:45:24;;;;;;;3.77;1.85;;;;;;;10.21;56.41;101606.80;1689569;84;25598;-70
2022/05/09 05:47:52;;;;;;;5.25;2.37;;;;;;;10.31;55.96;101612.73;1690908;84;27327;-69
2022/05/09 05:50:22;;;;;;;4.20;1.90;;;;;;;10.42;55.69;101624.62;1691336;84;25568;-69
2022/05/09 05:52:48;;;;;;;;;;;;;;;10.52;55.52;101612.14;1695100;84;25652;-70
2022/05/09 05:55:18;;;;;;;2.20;1.72;;;;;;;10.61;55.60;101621.33;1690152;84;25801;-70
2022/05/09 05:57:44;;;;;;;4.37;2.10;;;;;;;10.73;55.47;101622.36;1692440;84;25571;-70
2022/05/09 06:00:21;;;;;;;6.28;1.87;;;;;;;10.84;54.80;101626.09;1691411;84;28096;-70
2022/05/09 06:02:50;;;;;;;3.55;1.60;;;;;;;10.94;54.43;101621.71;1689631;84;25801;-70
2022/05/09 06:05:19;;;;;;;2.15;1.75;;;;;;;11.06;53.78;101633.56;1694949;84;25423;-71
2022/05/09 06:07:48;;;;;;;5.47;1.80;;;;;;;11.14;53.31;101627.56;1692831;84;25686;-70
2022/05/09 06:10:16;;;;;;;5.28;1.98;;;;;;;11.26;53.25;101633.99;1692695;84;25664;-69
2022/05/09 06:12:43;;;;;;;8.15;1.90;;;;;;;11.36;53.18;101631.22;1694482;84;28008;-69
2022/05/09 06:15:28;;;;;;;1.82;1.40;;;;;;;11.50;53.11;101642.23;1692376;84;26039;-69
2022/05/09 06:17:57;;;;;;;2.72;1.40;;;;;;;11.64;52.94;101628.84;1694450;84;25687;-69
2022/05/09 06:20:25;;;;;;;6.62;1.98;;;;;;;11.83;52.22;101634.37;1694161;84;25688;-70
2022/05/09 06:22:54;;;;;;;4.60;1.90;;;;;;;11.96;51.79;101633.74;1693039;84;25641;-69
2022/05/09 06:25:21;;;;;;;2.25;1.70;;;;;;;12.13;51.76;101641.45;1696016;82;27338;-69
2022/05/09 06:27:49;;;;;;;4.65;1.32;;;;;;;12.31;51.55;101635.30;1693239;84;25269;-69
2022/05/09 06:30:18;;;;;;;4.50;1.57;;;;;;;12.50;50.30;101637.27;1694015;84;25281;-69
2022/05/09 06:32:44;;;;;;;3.45;1.40;;;;;;;12.64;49.89;101636.02;1694626;84;25676;-70
2022/05/09 06:35:20;;;;;;;7.65;2.47;;;;;;;12.78;49.51;101642.34;1692416;84;25598;-70
2022/05/09 06:37:44;;;;;;;5.20;1.95;;;;;;;12.92;49.67;101642.44;1694238;84;27971;-69
2022/05/09 06:40:11;;;;;;;6.00;2.08;;;;;;;13.12;49.99;101647.34;1693426;84;25713;-70
2022/05/09 06:42:39;;;;;;;4.60;1.70;;;;;;;13.32;49.35;101643.02;1696967;84;25560;-70
2022/05/09 06:45:08;;;;;;;3.80;1.82;;;;;;;13.54;49.12;101656.56;1675338;84;25656;-69
2022/05/09 06:47:35;;;;;;;3.77;1.42;;;;;;;13.69;47.91;101646.80;1697503;84;25422;-69
2022/05/09 06:50:05;;;;;;;2.87;1.42;;;;;;;13.83;47.43;101651.72;1697369;84;27321;-69
2022/05/09 06:52:32;;;;;;;;;;;;;;;13.98;46.81;101645.22;1677770;84;25685;-69
2022/05/09 06:54:59;;;;;;;3.40;1.57;;;;;;;14.14;45.86;101652.54;1697470;84;25445;-69
2022/05/09 06:57:27;;;;;;;2.60;1.65;;;;;;;14.25;45.88;101659.98;1697312;83;25705;-70
2022/05/09 06:59:57;;;;;;;14.25;2.12;;;;;;;14.39;46.12;101658.07;1697392;84;25389;-70
2022/05/09 07:02:23;;;;;;;13.20;6.45;;;;;;;14.59;45.77;101665.61;1696006;83;27341;-69
2022/05/09 07:04:49;;;;;;;5.70;2.17;;;;;;;14.81;45.50;101660.01;1697242;83;25383;-70
2022/05/09 07:07:15;;;;;;;9.95;4.20;;;;;;;15.03;44.23;101668.81;1697287;84;25552;-69
2022/05/09 07:09:41;;;;;;;4.83;1.82;;;;;;;15.15;44.06;101663.63;1697333;84;26196;-69
2022/05/09 07:12:10;;;;;;;2.62;1.40;;;;;;;15.35;43.83;101667.82;1697352;83;25390;-70
2022/05/09 07:14:36;;;;;;;5.40;1.53;;;;;;;15.55;42.93;101667.12;1697582;84;27324;-70
2022/05/09 07:17:02;;;;;;;2.05;1.40;;;;;;;15.65;41.79;101664.14;1697300;84;25824;-71
2022/05/09 07:19:28;;;;;;;2.67;1.40;;;;;;;15.78;41.88;101672.86;1697357;84;25428;-70
2022/05/09 07:21:54;;;;;;;2.98;1.30;;;;;;;15.96;41.95;101674.33;1697025;84;25673;-68
2022/05/09 07:24:20;;;;;;;5.42;1.25;;;;;;;16.16;41.58;101677.89;1697025;84;26201;-70
2022/05/09 07:26:47;;;;;;;3.62;1.52;;;;;;;16.37;40.94;101669.95;1696651;84;27379;-70
2022/05/09 07:29:13;;;;;;;2.45;1.20;;;;;;;16.55;40.93;101673.57;1674598;84;25420;-68
2022/05/09 07:31:39;;;;;;;4.17;1.52;;;;;;;16.75;40.83;101674.92;1696979;84;25715;-69
2022/05/09 07:34:05;;;;;;;2.80;1.30;;;;;;;16.96;39.85;101668.89;1697052;84;27903;-69
2022/05/09 07:36:33;;;;;;;3.60;1.55;;;;;;;17.06;40.15;101673.23;1697115;84;25569;-69
2022/05/09 07:38:59;;;;;;;6.20;2.20;;;;;;;17.26;39.78;101679.44;1697076;84;27361;-69
2022/05/09 07:41:27;;;;;;;8.23;3.52;;;;;;;17.48;39.21;101671.64;1696906;84;25422;-69
2022/05/09 07:43:54;;;;;;;4.78;1.37;;;;;;;17.67;39.18;101669.14;1697074;84;25465;-69
2022/05/09 07:46:22;;;;;;;3.30;1.30;;;;;;;17.95;38.64;101672.36;1696988;84;25726;-69
2022/05/09 07:48:48;;;;;;;6.03;1.45;;;;;;;18.18;38.42;101678.97;1696951;84;25627;-69
2022/05/09 07:51:15;;;;;;;4.10;1.30;;;;;;;18.41;37.92;101668.59;1697124;84;27427;-69
2022/05/09 07:53:42;;;;;;;3.12;1.35;;;;;;;18.60;36.94;101674.45;1696953;84;25671;-69
2022/05/09 07:56:08;;;;;;;3.80;1.30;;;;;;;18.69;36.25;101671.66;1697133;84;25643;-69
2022/05/09 07:58:35;;;;;;;4.75;1.60;;;;;;;18.80;36.43;101666.63;1696919;84;25645;-69
2022/05/09 08:01:03;;;;;;;4.75;1.37;;;;;;;19.00;36.69;101671.36;1697162;84;25576;-69
2022/05/09 08:03:33;;;;;;;3.22;1.10;;;;;;;19.23;35.69;101670.45;1696808;84;28042;-69
2022/05/09 08:06:01;;;;;;;12.93;4.62;;;;;;;19.33;35.30;101669.26;1695126;84;25704;-69
2022/05/09 08:08:29;;;;;;;3.17;1.42;;;;;;;19.45;35.18;101667.14;1694972;84;25637;-69
2022/05/09 08:10:58;;;;;;;4.20;1.32;;;;;;;19.63;35.10;101671.92;1695038;84;25605;-69
2022/05/09 08:13:29;;;;;;;2.02;1.02;;;;;;;19.91;34.72;101666.65;1694984;84;25541;-69
2022/05/09 08:15:56;;;;;;;2.42;1.10;;;;;;;20.14;34.86;101671.72;1695129;84;27410;-68
2022/05/09 08:18:24;;;;;;;3.90;1.67;;;;;;;20.42;34.43;101673.26;1695020;84;25638;-69
2022/05/09 08:20:50;;;;;;;3.12;1.42;;;;;;;20.72;33.98;101668.92;1695062;84;25591;-69
2022/05/09 08:23:18;;;;;;;1.25;0.93;;;;;;;20.87;32.86;101670.99;1694965;84;25712;-68
2022/05/09 08:25:49;;;;;;;2.47;1.40;;;;;;;20.90;32.26;101666.15;1695075;84;25612;-69
2022/05/09 08:28:18;;;;;;;3.15;0.90;;;;;;;21.09;31.79;101660.62;1694997;84;27324;-69
2022/05/09 08:30:47;;;;;;;2.45;0.90;;;;;;;21.28;32.04;101666.86;1695120;84;25628;-70
2022/05/09 08:33:26;;;;;;;4.78;1.20;;;;;;;21.46;31.50;101656.38;1695553;84;25630;-69
2022/05/09 08:35:55;;;;;;;5.65;1.37;;;;;;;21.51;30.99;101664.41;1695261;84;26164;-68
2022/05/09 08:38:22;;;;;;;2.83;1.00;;;;;;;21.60;31.16;101659.55;1695847;84;25772;-69
2022/05/09 08:41:11;;;;;;;3.05;1.22;;;;;;;21.77;30.21;101656.27;1695309;84;27309;-69
2022/05/09 08:43:52;;;;;;;6.22;2.30;;;;;;;21.76;30.06;101661.53;1695195;84;25626;-70
2022/05/09 08:46:46;;;;;;;4.75;2.22;;;;;;;21.91;30.00;101662.72;1695062;84;25454;-71
2022/05/09 08:49:30;;;;;;;2.40;1.12;;;;;;;22.11;29.95;101658.91;1695365;84;26528;-71
2022/05/09 08:52:39;;;;;;;4.28;1.10;;;;;;;22.15;29.28;101662.58;1674029;84;25620;-71
2022/05/09 08:55:07;;;;;;;1.80;1.27;;;;;;;22.28;28.83;101661.92;1695542;84;27312;-70
2022/05/09 08:57:46;;;;;;;1.80;1.20;;;;;;;22.47;29.08;101665.34;1695224;84;25677;-71
2022/05/09 09:00:20;;;;;;;3.37;1.40;;;;;;;22.76;29.25;101666.01;1695335;84;25390;-70
2022/05/09 09:03:17;;;;;;;1.72;1.07;;;;;;;23.05;28.83;101663.88;1695367;84;25674;-70
2022/05/09 09:05:47;;;;;;;3.60;1.10;;;;;;;23.26;27.84;101663.59;1688713;82;25394;-70
2022/05/09 09:08:43;;;;;;;4.78;1.10;;;;;;;23.31;27.14;101666.84;1688697;84;27516;-70
2022/05/09 09:11:15;;;;;;;2.90;0.95;;;;;;;23.30;27.23;101661.69;1688533;85;25616;-70
2022/05/09 09:14:02;;;;;;;0.85;0.85;;;;;;;23.45;27.03;101658.64;1688537;84;25612;-71
2022/05/09 09:16:49;;;;;;;3.10;1.00;;;;;;;23.60;26.94;101654.17;1688790;85;26240;-70
2022/05/09 09:19:33;;;;;;;2.25;1.10;;;;;;;23.67;26.66;101676.42;1622280;87;25589;-70
2022/05/09 09:22:13;;;;;;;3.05;1.25;;;;;;;23.70;26.02;101660.51;1622067;87;27447;-70
2022/05/09 09:25:09;;;;;;;4.65;1.15;;;;;;;23.77;26.04;101657.88;1622066;88;25449;-71
2022/05/09 09:27:53;;;;;;;2.45;1.12;;;;;;;23.77;25.82;101659.81;1621887;87;25442;-70
2022/05/09 09:30:23;;;;;;;2.58;1.00;;;;;;;23.86;25.99;101665.36;1622060;88;25718;-70
2022/05/09 09:33:00;;;;;;;3.50;1.30;;;;;;;24.00;26.08;101669.55;1622098;88;25661;-71
2022/05/09 09:35:34;;;;;;;1.47;0.98;;;;;;;24.29;25.92;101671.42;1622080;88;27302;-70
2022/05/09 09:38:24;;;;;;;6.78;1.12;;;;;;;24.48;25.22;101667.17;1622011;88;25700;-70
2022/05/09 09:40:51;;;;;;;3.45;0.98;;;;;;;24.48;25.29;101667.77;1621747;87;25495;-70
2022/05/09 09:43:18;;;;;;;1.65;1.35;;;;;;;24.67;25.22;101667.71;1622035;88;25759;-70
2022/05/09 09:45:54;;;;;;;3.58;1.00;;;;;;;24.85;25.05;101656.88;1622219;88;25275;-70
2022/05/09 09:48:22;;;;;;;3.12;1.25;;;;;;;25.09;24.88;101652.06;1621395;88;27401;-70
2022/05/09 09:51:09;;;;;;;1.95;1.00;;;;;;;25.25;24.34;101652.67;1622186;88;25595;-71
2022/05/09 09:53:43;;;;;;;2.67;1.27;;;;;;;25.27;24.30;101656.48;1622245;88;25657;-70
2022/05/09 09:56:27;;;;;;;1.45;0.70;;;;;;;25.33;24.01;101657.13;1659303;85;26434;-70
2022/05/09 09:59:11;;;;;;;1.10;0.75;;;;;;;25.47;24.04;101650.16;1688746;85;25384;-70
2022/05/09 10:01:37;;;;;;;4.37;1.30;;;;;;;25.63;23.83;101653.51;1688189;84;27413;-70
2022/05/09 10:04:11;;;;;;;1.98;0.90;;;;;;;25.71;23.52;101641.33;1689818;84;25446;-70
2022/05/09 10:07:00;;;;;;;4.22;0.93;;;;;;;25.73;23.26;101643.72;1697468;84;25451;-70
2022/05/09 10:09:32;;;;;;;;;;;;;;;25.77;23.22;101644.55;1699972;84;25634;-70
2022/05/09 10:12:23;;;;;;;6.03;0.90;;;;;;;25.74;22.64;101634.22;1697387;84;25437;-70
2022/05/09 10:14:52;;;;;;;4.12;1.40;;;;;;;25.71;22.58;101645.48;1675147;84;28212;-71
2022/05/09 10:17:29;;;;;;;3.37;1.25;;;;;;;25.81;23.04;101643.19;1697592;84;25385;-70
2022/05/09 10:20:00;;;;;;;4.45;1.10;;;;;;;25.90;22.69;101641.70;1697432;84;25534;-70
2022/05/09 10:25:33;;;;;;;1.07;0.70;;;;;;;26.04;22.59;101641.66;1697482;84;25378;-71
2022/05/09 10:28:19;;;;;;;3.25;1.00;;;;;;;26.29;22.18;101644.64;1697082;84;27292;-71
2022/05/09 10:30:53;;;;;;;4.22;0.93;;;;;;;26.31;21.97;101631.78;1697291;84;25645;-70
2022/05/09 10:33:35;;;;;;;1.15;0.95;;;;;;;26.37;22.12;101623.28;1697344;84;25557;-72
2022/05/09 10:36:25;;;;;;;3.95;1.10;;;;;;;26.56;22.03;101629.97;1697422;84;25702;-72
2022/05/09 10:39:18;;;;;;;2.65;1.02;;;;;;;26.55;21.54;101624.80;1696370;84;25398;-68
2022/05/09 10:41:51;;;;;;;3.08;1.07;;;;;;;26.50;21.60;101625.16;1697421;84;27420;-67
2022/05/09 10:44:28;;;;;;;5.08;0.75;;;;;;;26.67;21.71;101630.66;1697331;84;25619;-68
2022/05/09 10:47:08;;;;;;;3.47;1.30;;;;;;;26.99;21.82;101623.27;1697419;84;25616;-67
2022/05/09 10:49:55;;;;;;;3.75;0.80;;;;;;;27.34;21.34;101619.64;1697379;84;25872;-68
2022/05/09 10:52:48;;;;;;;1.82;0.98;;;;;;;27.24;20.58;101618.39;1697228;84;25699;-67
2022/05/09 10:55:25;;;;;;;2.50;1.10;;;;;;;27.11;20.82;101627.69;1697036;84;27546;-67
2022/05/09 10:58:08;;;;;;;3.62;1.25;;;;;;;27.15;20.49;101619.36;1697139;84;25930;-68
2022/05/09 11:00:40;;;;;;;2.65;1.05;;;;;;;27.22;20.45;101609.66;1696502;84;25588;-68
2022/05/09 11:03:26;;;;;;;3.15;1.07;;;;;;;27.10;20.67;101612.20;1697164;84;26249;-67
2022/05/09 11:06:19;;;;;;;3.83;1.60;;;;;;;27.18;20.36;101601.92;1695809;84;25481;-68
2022/05/09 11:09:22;;;;;;;6.67;1.30;;;;;;;27.15;20.60;101599.92;1695350;84;28058;-68
2022/05/09 11:12:14;;;;;;;3.77;1.32;;;;;;;27.37;20.47;101598.03;1695252;84;25727;-68
2022/05/09 11:15:01;;;;;;;10.38;1.00;;;;;;;27.36;20.04;101595.86;1695337;84;25581;-67
2022/05/09 11:17:45;;;;;;;2.55;1.10;;;;;;;27.57;20.08;101599.86;1695327;84;25817;-70
2022/05/09 11:20:37;;;;;;;2.20;1.10;;;;;;;27.54;19.76;101588.93;1620742;87;25762;-67
2022/05/09 11:23:36;;;;;;;1.00;0.75;;;;;;;27.59;19.78;101590.53;1621161;88;27490;-68
2022/05/09 11:26:28;;;;;;;10.08;6.97;;;;;;;27.57;19.38;101591.52;1621105;88;25584;-68
2022/05/09 11:29:24;;;;;;;1.42;0.80;;;;;;;27.69;19.62;101582.02;1620573;87;25494;-67
2022/05/09 11:32:11;;;;;;;3.12;1.07;;;;;;;27.79;19.41;101581.22;1621087;88;25684;-67
2022/05/09 11:34:58;;;;;;;2.67;0.88;;;;;;;28.06;19.61;101595.55;1621041;88;25697;-67
2022/05/09 11:37:49;;;;;;;2.02;0.75;;;;;;;28.09;19.18;101589.19;1621135;88;27439;-67
2022/05/09 11:40:52;;;;;;;4.75;1.32;;;;;;;27.93;19.24;101589.58;1621112;88;25684;-67
2022/05/09 11:43:57;;;;;;;1.05;0.80;;;;;;;28.02;18.84;101587.78;1621157;88;25550;-68
2022/05/09 11:46:52;;;;;;;3.17;0.98;;;;;;;28.05;19.05;101584.81;1621105;88;25724;-68
2022/05/09 11:49:38;;;;;;;1.57;0.80;;;;;;;28.11;18.53;101577.64;1620657;88;25595;-67
2022/05/09 11:52:27;;;;;;;2.58;0.90;;;;;;;27.98;18.30;101578.66;1621214;88;28149;-67
2022/05/09 11:54:55;;;;;;;;;;;;;;;28.15;18.58;101572.10;1623547;88;25585;-68
2022/05/09 11:57:32;;;;;;;2.47;1.32;;;;;;;28.38;18.25;101580.77;1655636;84;34761;-68
2022/05/09 12:00:04;;;;;;;7.15;1.30;;;;;;;28.43;18.44;101580.36;1695252;84;25608;-68
2022/05/09 12:02:54;;;;;;;4.12;1.22;;;;;;;28.45;18.23;101574.40;1695139;84;25395;-68